sensor_id;sensor_type;location;lat;lon;timestamp;temperature;humidity
21676;DHT22;10999;51.332;9.458;2023-03-23T00:01:48;12.70;43.60
21676;DHT22;10999;51.332;9.458;2023-03-23T00:04:16;12.70;44.60
21676;DHT22;10999;51.332;9.458;2023-03-23T00:06:42;12.70;44.20
21676;DHT22;10999;51.332;9.458;2023-03-23T00:09:11;12.70;44.30
21676;DHT22;10999;51.332;9.458;2023-03-23T00:11:38;12.70;44.60
21676;DHT22;10999;51.332;9.458;2023-03-23T00:14:04;12.70;44.70
21676;DHT22;10999;51.332;9.458;2023-03-23T00:16:32;12.80;43.60
21676;DHT22;10999;51.332;9.458;2023-03-23T00:21:26;12.70;44.10
21676;DHT22;10999;51.332;9.458;2023-03-23T00:26:31;12.70;45.10
21676;DHT22;10999;51.332;9.458;2023-03-23T00:29:00;12.70;45.40
21676;DHT22;10999;51.332;9.458;2023-03-23T00:31:26;12.70;45.50
21676;DHT22;10999;51.332;9.458;2023-03-23T00:34:02;12.70;45.50
21676;DHT22;10999;51.332;9.458;2023-03-23T00:36:30;12.70;46.60
21676;DHT22;10999;51.332;9.458;2023-03-23T00:38:56;12.60;50.70
21676;DHT22;10999;51.332;9.458;2023-03-23T00:41:24;12.50;53.80
21676;DHT22;10999;51.332;9.458;2023-03-23T00:43:53;12.30;57.20
21676;DHT22;10999;51.332;9.458;2023-03-23T00:46:19;12.20;58.60
21676;DHT22;10999;51.332;9.458;2023-03-23T00:48:46;12.10;58.80
21676;DHT22;10999;51.332;9.458;2023-03-23T00:51:12;12.00;60.00
21676;DHT22;10999;51.332;9.458;2023-03-23T00:53:39;11.90;64.20
21676;DHT22;10999;51.332;9.458;2023-03-23T00:56:07;11.80;64.90
21676;DHT22;10999;51.332;9.458;2023-03-23T00:58:32;11.70;65.40
21676;DHT22;10999;51.332;9.458;2023-03-23T01:00:58;11.60;66.00
21676;DHT22;10999;51.332;9.458;2023-03-23T01:03:24;11.60;66.70
21676;DHT22;10999;51.332;9.458;2023-03-23T01:05:52;11.60;66.50
21676;DHT22;10999;51.332;9.458;2023-03-23T01:08:19;11.60;66.00
21676;DHT22;10999;51.332;9.458;2023-03-23T01:10:45;11.50;66.80
21676;DHT22;10999;51.332;9.458;2023-03-23T01:13:11;11.40;66.00
21676;DHT22;10999;51.332;9.458;2023-03-23T01:15:37;11.40;66.50
21676;DHT22;10999;51.332;9.458;2023-03-23T01:18:03;11.50;63.60
21676;DHT22;10999;51.332;9.458;2023-03-23T01:20:29;11.50;63.90
21676;DHT22;10999;51.332;9.458;2023-03-23T01:22:57;11.40;64.90
21676;DHT22;10999;51.332;9.458;2023-03-23T01:25:31;11.40;64.80
21676;DHT22;10999;51.332;9.458;2023-03-23T01:27:58;11.40;63.40
21676;DHT22;10999;51.332;9.458;2023-03-23T01:30:24;11.40;62.90
21676;DHT22;10999;51.332;9.458;2023-03-23T01:32:51;11.40;62.90
21676;DHT22;10999;51.332;9.458;2023-03-23T01:35:17;11.50;62.40
21676;DHT22;10999;51.332;9.458;2023-03-23T01:37:43;11.60;61.70
21676;DHT22;10999;51.332;9.458;2023-03-23T01:40:10;11.60;61.10
21676;DHT22;10999;51.332;9.458;2023-03-23T01:42:37;11.60;61.30
21676;DHT22;10999;51.332;9.458;2023-03-23T01:45:23;11.70;60.80
21676;DHT22;10999;51.332;9.458;2023-03-23T01:47:55;11.70;60.00
21676;DHT22;10999;51.332;9.458;2023-03-23T01:50:24;11.70;59.90
21676;DHT22;10999;51.332;9.458;2023-03-23T01:52:53;11.70;59.10
21676;DHT22;10999;51.332;9.458;2023-03-23T01:55:21;11.70;59.30
21676;DHT22;10999;51.332;9.458;2023-03-23T01:57:47;11.70;60.20
21676;DHT22;10999;51.332;9.458;2023-03-23T02:00:14;11.70;58.80
21676;DHT22;10999;51.332;9.458;2023-03-23T02:02:43;11.70;59.50
21676;DHT22;10999;51.332;9.458;2023-03-23T02:05:40;11.70;59.00
21676;DHT22;10999;51.332;9.458;2023-03-23T02:08:08;11.70;59.80
21676;DHT22;10999;51.332;9.458;2023-03-23T02:10:36;11.70;60.70
21676;DHT22;10999;51.332;9.458;2023-03-23T02:13:05;11.60;61.20
21676;DHT22;10999;51.332;9.458;2023-03-23T02:16:00;11.60;60.90
21676;DHT22;10999;51.332;9.458;2023-03-23T02:18:37;11.60;61.30
21676;DHT22;10999;51.332;9.458;2023-03-23T02:32:00;11.40;62.90
21676;DHT22;10999;51.332;9.458;2023-03-23T02:37:12;11.40;64.10
21676;DHT22;10999;51.332;9.458;2023-03-23T02:39:49;11.40;64.80
21676;DHT22;10999;51.332;9.458;2023-03-23T02:42:24;11.50;64.80
21676;DHT22;10999;51.332;9.458;2023-03-23T02:44:53;11.50;65.60
21676;DHT22;10999;51.332;9.458;2023-03-23T02:47:22;11.50;67.30
21676;DHT22;10999;51.332;9.458;2023-03-23T02:49:51;11.40;68.70
21676;DHT22;10999;51.332;9.458;2023-03-23T02:52:22;11.30;70.20
21676;DHT22;10999;51.332;9.458;2023-03-23T02:54:51;11.30;72.10
21676;DHT22;10999;51.332;9.458;2023-03-23T02:57:17;11.20;72.10
21676;DHT22;10999;51.332;9.458;2023-03-23T02:59:43;11.20;73.20
21676;DHT22;10999;51.332;9.458;2023-03-23T03:02:28;11.20;73.50
21676;DHT22;10999;51.332;9.458;2023-03-23T03:07:59;11.20;74.90
21676;DHT22;10999;51.332;9.458;2023-03-23T03:10:33;11.10;74.90
21676;DHT22;10999;51.332;9.458;2023-03-23T03:15:47;11.00;76.30
21676;DHT22;10999;51.332;9.458;2023-03-23T03:18:18;11.00;77.50
21676;DHT22;10999;51.332;9.458;2023-03-23T03:20:50;11.00;78.60
21676;DHT22;10999;51.332;9.458;2023-03-23T03:23:21;10.90;79.70
21676;DHT22;10999;51.332;9.458;2023-03-23T03:25:47;10.80;80.90
21676;DHT22;10999;51.332;9.458;2023-03-23T03:28:16;10.80;82.00
21676;DHT22;10999;51.332;9.458;2023-03-23T03:30:43;10.70;82.10
21676;DHT22;10999;51.332;9.458;2023-03-23T03:33:11;10.60;83.60
21676;DHT22;10999;51.332;9.458;2023-03-23T03:35:39;10.60;84.50
21676;DHT22;10999;51.332;9.458;2023-03-23T03:38:09;10.50;85.40
21676;DHT22;10999;51.332;9.458;2023-03-23T03:40:35;10.40;86.40
21676;DHT22;10999;51.332;9.458;2023-03-23T03:43:01;10.40;87.40
21676;DHT22;10999;51.332;9.458;2023-03-23T03:45:27;10.40;88.40
21676;DHT22;10999;51.332;9.458;2023-03-23T03:47:53;10.30;89.30
21676;DHT22;10999;51.332;9.458;2023-03-23T03:50:18;10.30;90.30
21676;DHT22;10999;51.332;9.458;2023-03-23T03:52:45;10.20;90.30
21676;DHT22;10999;51.332;9.458;2023-03-23T03:55:11;10.20;91.10
21676;DHT22;10999;51.332;9.458;2023-03-23T03:57:37;10.20;91.90
21676;DHT22;10999;51.332;9.458;2023-03-23T04:00:04;10.10;92.60
21676;DHT22;10999;51.332;9.458;2023-03-23T04:02:42;10.10;92.80
21676;DHT22;10999;51.332;9.458;2023-03-23T04:05:09;10.10;93.60
21676;DHT22;10999;51.332;9.458;2023-03-23T04:07:36;10.10;94.00
21676;DHT22;10999;51.332;9.458;2023-03-23T04:10:07;10.00;94.60
21676;DHT22;10999;51.332;9.458;2023-03-23T04:12:34;10.00;95.10
21676;DHT22;10999;51.332;9.458;2023-03-23T04:15:00;10.00;95.50
21676;DHT22;10999;51.332;9.458;2023-03-23T04:17:25;9.90;96.00
21676;DHT22;10999;51.332;9.458;2023-03-23T04:19:52;9.90;96.60
21676;DHT22;10999;51.332;9.458;2023-03-23T04:22:18;9.90;97.20
21676;DHT22;10999;51.332;9.458;2023-03-23T04:24:44;9.90;97.70
21676;DHT22;10999;51.332;9.458;2023-03-23T04:27:09;9.80;97.80
21676;DHT22;10999;51.332;9.458;2023-03-23T04:29:38;9.80;98.10
21676;DHT22;10999;51.332;9.458;2023-03-23T04:32:04;9.80;98.40
21676;DHT22;10999;51.332;9.458;2023-03-23T04:34:29;9.80;98.80
21676;DHT22;10999;51.332;9.458;2023-03-23T04:36:58;9.80;99.10
21676;DHT22;10999;51.332;9.458;2023-03-23T04:39:24;9.80;99.30
21676;DHT22;10999;51.332;9.458;2023-03-23T04:41:49;9.80;99.30
21676;DHT22;10999;51.332;9.458;2023-03-23T04:44:15;9.80;99.40
21676;DHT22;10999;51.332;9.458;2023-03-23T04:46:47;9.70;99.60
21676;DHT22;10999;51.332;9.458;2023-03-23T04:49:15;9.70;99.90
21676;DHT22;10999;51.332;9.458;2023-03-23T04:51:46;9.70;99.90
21676;DHT22;10999;51.332;9.458;2023-03-23T04:54:12;9.70;99.90
21676;DHT22;10999;51.332;9.458;2023-03-23T04:56:38;9.70;99.90
21676;DHT22;10999;51.332;9.458;2023-03-23T04:59:03;9.60;99.90
21676;DHT22;10999;51.332;9.458;2023-03-23T05:01:31;9.60;99.90
21676;DHT22;10999;51.332;9.458;2023-03-23T05:03:59;9.60;99.90
21676;DHT22;10999;51.332;9.458;2023-03-23T05:06:25;9.60;99.90
21676;DHT22;10999;51.332;9.458;2023-03-23T05:08:51;9.50;99.90
21676;DHT22;10999;51.332;9.458;2023-03-23T05:11:17;9.50;99.90
21676;DHT22;10999;51.332;9.458;2023-03-23T05:13:42;9.50;99.90
21676;DHT22;10999;51.332;9.458;2023-03-23T05:16:09;9.50;99.90
21676;DHT22;10999;51.332;9.458;2023-03-23T05:18:35;9.50;99.90
21676;DHT22;10999;51.332;9.458;2023-03-23T05:21:02;9.50;99.90
21676;DHT22;10999;51.332;9.458;2023-03-23T05:23:28;9.50;99.90
21676;DHT22;10999;51.332;9.458;2023-03-23T05:25:57;9.50;99.90
21676;DHT22;10999;51.332;9.458;2023-03-23T05:28:26;9.50;99.90
21676;DHT22;10999;51.332;9.458;2023-03-23T05:30:53;9.50;99.90
21676;DHT22;10999;51.332;9.458;2023-03-23T05:33:20;9.40;99.90
21676;DHT22;10999;51.332;9.458;2023-03-23T05:35:47;9.40;99.90
21676;DHT22;10999;51.332;9.458;2023-03-23T05:38:13;9.40;99.90
21676;DHT22;10999;51.332;9.458;2023-03-23T05:40:40;9.40;99.90
21676;DHT22;10999;51.332;9.458;2023-03-23T05:43:07;9.40;99.90
21676;DHT22;10999;51.332;9.458;2023-03-23T05:45:33;9.40;99.90
21676;DHT22;10999;51.332;9.458;2023-03-23T05:48:00;9.40;99.90
21676;DHT22;10999;51.332;9.458;2023-03-23T05:50:26;9.40;99.90
21676;DHT22;10999;51.332;9.458;2023-03-23T05:52:54;9.40;99.90
21676;DHT22;10999;51.332;9.458;2023-03-23T05:55:19;9.40;99.90
21676;DHT22;10999;51.332;9.458;2023-03-23T05:57:45;9.50;99.90
21676;DHT22;10999;51.332;9.458;2023-03-23T06:00:11;9.50;99.90
21676;DHT22;10999;51.332;9.458;2023-03-23T06:02:40;9.50;99.90
21676;DHT22;10999;51.332;9.458;2023-03-23T06:05:09;9.50;99.90
21676;DHT22;10999;51.332;9.458;2023-03-23T06:07:36;9.50;99.90
21676;DHT22;10999;51.332;9.458;2023-03-23T06:10:06;9.50;99.90
21676;DHT22;10999;51.332;9.458;2023-03-23T06:12:32;9.60;99.90
21676;DHT22;10999;51.332;9.458;2023-03-23T06:14:58;9.50;99.90
21676;DHT22;10999;51.332;9.458;2023-03-23T06:17:24;9.60;99.90
21676;DHT22;10999;51.332;9.458;2023-03-23T06:19:50;9.60;99.90
21676;DHT22;10999;51.332;9.458;2023-03-23T06:22:17;9.60;99.90
21676;DHT22;10999;51.332;9.458;2023-03-23T06:24:43;9.60;99.90
21676;DHT22;10999;51.332;9.458;2023-03-23T06:27:09;9.60;99.90
21676;DHT22;10999;51.332;9.458;2023-03-23T06:29:36;9.60;99.90
21676;DHT22;10999;51.332;9.458;2023-03-23T06:32:04;9.60;99.90
21676;DHT22;10999;51.332;9.458;2023-03-23T06:34:30;9.60;99.90
21676;DHT22;10999;51.332;9.458;2023-03-23T06:36:58;9.60;99.90
21676;DHT22;10999;51.332;9.458;2023-03-23T06:39:23;9.70;99.90
21676;DHT22;10999;51.332;9.458;2023-03-23T06:41:50;9.70;99.90
21676;DHT22;10999;51.332;9.458;2023-03-23T06:44:15;9.80;99.90
21676;DHT22;10999;51.332;9.458;2023-03-23T06:46:42;9.90;99.90
21676;DHT22;10999;51.332;9.458;2023-03-23T06:49:07;9.90;99.90
21676;DHT22;10999;51.332;9.458;2023-03-23T06:51:33;10.00;99.90
21676;DHT22;10999;51.332;9.458;2023-03-23T06:53:59;10.00;99.40
21676;DHT22;10999;51.332;9.458;2023-03-23T06:56:26;10.10;99.00
21676;DHT22;10999;51.332;9.458;2023-03-23T06:58:52;10.10;98.50
21676;DHT22;10999;51.332;9.458;2023-03-23T07:01:18;10.20;98.40
21676;DHT22;10999;51.332;9.458;2023-03-23T07:03:43;10.20;98.00
21676;DHT22;10999;51.332;9.458;2023-03-23T07:06:09;10.20;97.60
21676;DHT22;10999;51.332;9.458;2023-03-23T07:08:36;10.30;96.90
21676;DHT22;10999;51.332;9.458;2023-03-23T07:11:02;10.30;96.80
21676;DHT22;10999;51.332;9.458;2023-03-23T07:13:28;10.30;96.40
21676;DHT22;10999;51.332;9.458;2023-03-23T07:15:54;10.40;95.80
21676;DHT22;10999;51.332;9.458;2023-03-23T07:18:20;10.40;95.20
21676;DHT22;10999;51.332;9.458;2023-03-23T07:20:51;10.40;95.50
21676;DHT22;10999;51.332;9.458;2023-03-23T07:23:17;10.40;95.50
21676;DHT22;10999;51.332;9.458;2023-03-23T07:25:43;10.40;95.00
21676;DHT22;10999;51.332;9.458;2023-03-23T07:28:10;10.40;95.00
21676;DHT22;10999;51.332;9.458;2023-03-23T07:30:36;10.40;95.50
21676;DHT22;10999;51.332;9.458;2023-03-23T07:33:06;10.40;95.00
21676;DHT22;10999;51.332;9.458;2023-03-23T07:35:33;10.50;95.40
21676;DHT22;10999;51.332;9.458;2023-03-23T07:37:59;10.50;95.20
21676;DHT22;10999;51.332;9.458;2023-03-23T07:40:25;10.50;95.10
21676;DHT22;10999;51.332;9.458;2023-03-23T07:42:54;10.60;95.40
21676;DHT22;10999;51.332;9.458;2023-03-23T07:45:20;10.60;94.70
21676;DHT22;10999;51.332;9.458;2023-03-23T07:47:46;10.60;94.70
21676;DHT22;10999;51.332;9.458;2023-03-23T07:50:17;10.70;93.90
21676;DHT22;10999;51.332;9.458;2023-03-23T07:52:49;10.80;94.70
21676;DHT22;10999;51.332;9.458;2023-03-23T07:55:15;10.90;94.30
21676;DHT22;10999;51.332;9.458;2023-03-23T07:57:47;10.90;93.30
21676;DHT22;10999;51.332;9.458;2023-03-23T08:00:15;11.00;92.80
21676;DHT22;10999;51.332;9.458;2023-03-23T08:02:49;11.00;92.60
21676;DHT22;10999;51.332;9.458;2023-03-23T08:05:15;11.10;92.70
21676;DHT22;10999;51.332;9.458;2023-03-23T08:07:42;11.20;92.90
21676;DHT22;10999;51.332;9.458;2023-03-23T08:10:09;11.30;92.00
21676;DHT22;10999;51.332;9.458;2023-03-23T08:12:36;11.30;91.50
21676;DHT22;10999;51.332;9.458;2023-03-23T08:15:03;11.30;91.00
21676;DHT22;10999;51.332;9.458;2023-03-23T08:17:28;11.30;90.80
21676;DHT22;10999;51.332;9.458;2023-03-23T08:19:54;11.30;90.30
21676;DHT22;10999;51.332;9.458;2023-03-23T08:22:20;11.30;91.60
21676;DHT22;10999;51.332;9.458;2023-03-23T08:24:46;11.30;90.20
21676;DHT22;10999;51.332;9.458;2023-03-23T08:27:12;11.40;90.00
21676;DHT22;10999;51.332;9.458;2023-03-23T08:29:38;11.30;90.20
21676;DHT22;10999;51.332;9.458;2023-03-23T08:32:04;11.40;90.20
21676;DHT22;10999;51.332;9.458;2023-03-23T08:34:30;11.40;89.50
21676;DHT22;10999;51.332;9.458;2023-03-23T08:36:56;11.50;90.00
21676;DHT22;10999;51.332;9.458;2023-03-23T08:39:22;11.60;89.80
21676;DHT22;10999;51.332;9.458;2023-03-23T08:41:49;11.70;89.90
21676;DHT22;10999;51.332;9.458;2023-03-23T08:44:14;11.70;88.90
21676;DHT22;10999;51.332;9.458;2023-03-23T08:46:40;11.90;88.60
21676;DHT22;10999;51.332;9.458;2023-03-23T08:49:06;12.00;86.40
21676;DHT22;10999;51.332;9.458;2023-03-23T08:51:33;12.00;86.00
21676;DHT22;10999;51.332;9.458;2023-03-23T08:53:58;12.00;86.40
21676;DHT22;10999;51.332;9.458;2023-03-23T08:56:24;12.10;86.00
21676;DHT22;10999;51.332;9.458;2023-03-23T08:58:50;12.10;85.70
21676;DHT22;10999;51.332;9.458;2023-03-23T09:01:16;12.20;84.30
21676;DHT22;10999;51.332;9.458;2023-03-23T09:03:41;12.30;84.20
21676;DHT22;10999;51.332;9.458;2023-03-23T09:06:08;12.40;84.50
21676;DHT22;10999;51.332;9.458;2023-03-23T09:08:34;12.60;83.90
21676;DHT22;10999;51.332;9.458;2023-03-23T09:11:06;12.70;81.70
21676;DHT22;10999;51.332;9.458;2023-03-23T09:13:33;12.70;83.00
21676;DHT22;10999;51.332;9.458;2023-03-23T09:16:00;12.80;82.10
21676;DHT22;10999;51.332;9.458;2023-03-23T09:18:25;12.70;81.60
21676;DHT22;10999;51.332;9.458;2023-03-23T09:20:52;12.60;80.20
21676;DHT22;10999;51.332;9.458;2023-03-23T09:23:19;12.70;81.60
21676;DHT22;10999;51.332;9.458;2023-03-23T09:25:48;12.60;80.60
21676;DHT22;10999;51.332;9.458;2023-03-23T09:28:14;12.60;79.80
21676;DHT22;10999;51.332;9.458;2023-03-23T09:30:40;12.70;78.10
21676;DHT22;10999;51.332;9.458;2023-03-23T09:33:06;12.70;79.60
21676;DHT22;10999;51.332;9.458;2023-03-23T09:35:34;12.70;79.10
21676;DHT22;10999;51.332;9.458;2023-03-23T09:38:02;12.80;77.40
21676;DHT22;10999;51.332;9.458;2023-03-23T09:40:36;12.80;78.00
21676;DHT22;10999;51.332;9.458;2023-03-23T09:48:24;12.90;76.70
21676;DHT22;10999;51.332;9.458;2023-03-23T09:51:01;13.00;76.00
21676;DHT22;10999;51.332;9.458;2023-03-23T09:53:35;13.10;75.10
21676;DHT22;10999;51.332;9.458;2023-03-23T09:56:11;13.10;74.10
21676;DHT22;10999;51.332;9.458;2023-03-23T09:59:02;13.20;71.70
21676;DHT22;10999;51.332;9.458;2023-03-23T10:01:39;13.10;71.10
21676;DHT22;10999;51.332;9.458;2023-03-23T10:04:21;13.20;71.00
21676;DHT22;10999;51.332;9.458;2023-03-23T10:06:47;13.10;68.20
21676;DHT22;10999;51.332;9.458;2023-03-23T10:09:17;13.10;68.60
21676;DHT22;10999;51.332;9.458;2023-03-23T10:12:00;13.20;65.50
21676;DHT22;10999;51.332;9.458;2023-03-23T10:14:52;13.20;67.40
21676;DHT22;10999;51.332;9.458;2023-03-23T10:17:29;13.30;65.50
21676;DHT22;10999;51.332;9.458;2023-03-23T10:20:01;13.30;66.60
21676;DHT22;10999;51.332;9.458;2023-03-23T10:22:35;13.40;64.00
21676;DHT22;10999;51.332;9.458;2023-03-23T10:25:15;13.40;62.70
21676;DHT22;10999;51.332;9.458;2023-03-23T10:27:46;13.40;60.30
21676;DHT22;10999;51.332;9.458;2023-03-23T10:32:53;13.50;60.90
21676;DHT22;10999;51.332;9.458;2023-03-23T10:35:33;13.60;60.30
21676;DHT22;10999;51.332;9.458;2023-03-23T10:38:06;13.60;60.40
21676;DHT22;10999;51.332;9.458;2023-03-23T10:40:52;13.70;60.60
21676;DHT22;10999;51.332;9.458;2023-03-23T10:43:19;13.70;59.10
21676;DHT22;10999;51.332;9.458;2023-03-23T10:45:51;13.70;59.70
21676;DHT22;10999;51.332;9.458;2023-03-23T10:48:29;13.60;57.60
21676;DHT22;10999;51.332;9.458;2023-03-23T10:51:00;13.60;57.10
21676;DHT22;10999;51.332;9.458;2023-03-23T10:53:50;13.50;56.00
21676;DHT22;10999;51.332;9.458;2023-03-23T10:56:47;13.40;56.80
21676;DHT22;10999;51.332;9.458;2023-03-23T10:59:17;13.30;56.40
21676;DHT22;10999;51.332;9.458;2023-03-23T11:01:48;13.30;55.90
21676;DHT22;10999;51.332;9.458;2023-03-23T11:04:17;13.30;54.70
21676;DHT22;10999;51.332;9.458;2023-03-23T11:06:49;13.30;54.90
21676;DHT22;10999;51.332;9.458;2023-03-23T11:09:19;13.50;54.30
21676;DHT22;10999;51.332;9.458;2023-03-23T11:11:51;13.70;51.30
21676;DHT22;10999;51.332;9.458;2023-03-23T11:14:18;14.00;51.90
21676;DHT22;10999;51.332;9.458;2023-03-23T11:16:55;14.10;49.70
21676;DHT22;10999;51.332;9.458;2023-03-23T11:19:27;14.30;47.30
21676;DHT22;10999;51.332;9.458;2023-03-23T11:21:57;14.40;45.70
21676;DHT22;10999;51.332;9.458;2023-03-23T11:24:28;14.50;44.90
21676;DHT22;10999;51.332;9.458;2023-03-23T11:26:56;14.60;44.20
21676;DHT22;10999;51.332;9.458;2023-03-23T11:29:25;14.70;44.20
21676;DHT22;10999;51.332;9.458;2023-03-23T11:32:02;14.60;45.30
21676;DHT22;10999;51.332;9.458;2023-03-23T11:34:46;14.60;45.30
21676;DHT22;10999;51.332;9.458;2023-03-23T11:37:35;14.60;45.50
21676;DHT22;10999;51.332;9.458;2023-03-23T11:42:45;14.60;46.50
21676;DHT22;10999;51.332;9.458;2023-03-23T11:58:23;15.30;46.90
21676;DHT22;10999;51.332;9.458;2023-03-23T12:00:58;15.50;46.70
21676;DHT22;10999;51.332;9.458;2023-03-23T12:03:57;15.60;47.60
21676;DHT22;10999;51.332;9.458;2023-03-23T12:06:41;15.60;47.10
21676;DHT22;10999;51.332;9.458;2023-03-23T12:09:19;15.60;46.60
21676;DHT22;10999;51.332;9.458;2023-03-23T12:17:34;15.00;49.20
21676;DHT22;10999;51.332;9.458;2023-03-23T12:30:46;14.40;50.60
21676;DHT22;10999;51.332;9.458;2023-03-23T12:44:46;14.90;54.40
21676;DHT22;10999;51.332;9.458;2023-03-23T12:50:07;15.00;51.80
21676;DHT22;10999;51.332;9.458;2023-03-23T12:58:17;15.10;50.30
21676;DHT22;10999;51.332;9.458;2023-03-23T13:03:39;15.10;50.80
21676;DHT22;10999;51.332;9.458;2023-03-23T13:09:45;14.90;50.70
21676;DHT22;10999;51.332;9.458;2023-03-23T13:12:14;14.60;52.20
21676;DHT22;10999;51.332;9.458;2023-03-23T13:14:49;14.50;53.20
21676;DHT22;10999;51.332;9.458;2023-03-23T13:17:49;14.40;54.60
21676;DHT22;10999;51.332;9.458;2023-03-23T13:21:17;14.50;54.80
21676;DHT22;10999;51.332;9.458;2023-03-23T13:23:56;14.60;55.00
21676;DHT22;10999;51.332;9.458;2023-03-23T13:26:24;14.90;53.70
21676;DHT22;10999;51.332;9.458;2023-03-23T13:34:05;14.80;50.70
21676;DHT22;10999;51.332;9.458;2023-03-23T13:39:05;14.50;52.30
21676;DHT22;10999;51.332;9.458;2023-03-23T13:41:33;14.60;53.30
21676;DHT22;10999;51.332;9.458;2023-03-23T13:44:16;14.60;53.20
21676;DHT22;10999;51.332;9.458;2023-03-23T13:46:57;14.60;52.60
21676;DHT22;10999;51.332;9.458;2023-03-23T13:49:32;14.60;52.50
21676;DHT22;10999;51.332;9.458;2023-03-23T13:52:36;14.60;52.30
21676;DHT22;10999;51.332;9.458;2023-03-23T13:57:51;14.50;52.50
21676;DHT22;10999;51.332;9.458;2023-03-23T14:03:13;14.40;52.80
21676;DHT22;10999;51.332;9.458;2023-03-23T14:05:41;14.30;52.30
21676;DHT22;10999;51.332;9.458;2023-03-23T14:08:21;14.20;53.20
21676;DHT22;10999;51.332;9.458;2023-03-23T14:10:52;14.20;53.00
21676;DHT22;10999;51.332;9.458;2023-03-23T14:13:50;14.20;53.30
21676;DHT22;10999;51.332;9.458;2023-03-23T14:16:24;14.20;54.40
21676;DHT22;10999;51.332;9.458;2023-03-23T14:19:03;14.20;53.10
21676;DHT22;10999;51.332;9.458;2023-03-23T14:23:59;14.20;53.10
21676;DHT22;10999;51.332;9.458;2023-03-23T14:26:24;14.20;51.60
21676;DHT22;10999;51.332;9.458;2023-03-23T14:28:51;14.20;51.00
21676;DHT22;10999;51.332;9.458;2023-03-23T14:33:49;14.30;51.20
21676;DHT22;10999;51.332;9.458;2023-03-23T14:36:23;14.40;50.60
21676;DHT22;10999;51.332;9.458;2023-03-23T14:39:13;14.50;50.10
21676;DHT22;10999;51.332;9.458;2023-03-23T14:41:40;14.50;49.10
21676;DHT22;10999;51.332;9.458;2023-03-23T14:44:06;14.50;50.50
21676;DHT22;10999;51.332;9.458;2023-03-23T14:46:33;14.50;49.90
21676;DHT22;10999;51.332;9.458;2023-03-23T14:48:59;14.50;49.90
21676;DHT22;10999;51.332;9.458;2023-03-23T14:51:25;14.50;50.30
21676;DHT22;10999;51.332;9.458;2023-03-23T14:53:53;14.50;50.30
21676;DHT22;10999;51.332;9.458;2023-03-23T14:56:22;14.60;50.10
21676;DHT22;10999;51.332;9.458;2023-03-23T14:58:51;14.60;49.60
21676;DHT22;10999;51.332;9.458;2023-03-23T15:01:27;14.50;50.50
21676;DHT22;10999;51.332;9.458;2023-03-23T15:03:58;14.50;51.50
21676;DHT22;10999;51.332;9.458;2023-03-23T15:06:28;14.50;51.00
21676;DHT22;10999;51.332;9.458;2023-03-23T15:08:59;14.50;51.40
21676;DHT22;10999;51.332;9.458;2023-03-23T15:11:31;14.60;50.20
21676;DHT22;10999;51.332;9.458;2023-03-23T15:14:00;14.60;50.00
21676;DHT22;10999;51.332;9.458;2023-03-23T15:16:33;14.50;50.50
21676;DHT22;10999;51.332;9.458;2023-03-23T15:19:04;14.30;50.70
21676;DHT22;10999;51.332;9.458;2023-03-23T15:21:45;14.20;51.40
21676;DHT22;10999;51.332;9.458;2023-03-23T15:24:23;14.20;51.50
21676;DHT22;10999;51.332;9.458;2023-03-23T15:26:49;14.10;52.60
21676;DHT22;10999;51.332;9.458;2023-03-23T15:29:20;14.20;52.60
21676;DHT22;10999;51.332;9.458;2023-03-23T15:31:53;14.20;52.30
21676;DHT22;10999;51.332;9.458;2023-03-23T15:37:03;14.30;52.10
21676;DHT22;10999;51.332;9.458;2023-03-23T15:39:29;14.30;51.30
21676;DHT22;10999;51.332;9.458;2023-03-23T15:41:56;14.30;51.50
21676;DHT22;10999;51.332;9.458;2023-03-23T15:44:31;14.30;51.30
21676;DHT22;10999;51.332;9.458;2023-03-23T15:47:14;14.30;51.40
21676;DHT22;10999;51.332;9.458;2023-03-23T15:49:41;14.30;50.90
21676;DHT22;10999;51.332;9.458;2023-03-23T15:52:10;14.30;50.60
21676;DHT22;10999;51.332;9.458;2023-03-23T15:54:37;14.30;50.80
21676;DHT22;10999;51.332;9.458;2023-03-23T15:57:02;14.30;50.70
21676;DHT22;10999;51.332;9.458;2023-03-23T15:59:28;14.20;50.40
21676;DHT22;10999;51.332;9.458;2023-03-23T16:01:55;14.20;51.50
21676;DHT22;10999;51.332;9.458;2023-03-23T16:04:22;14.20;51.70
21676;DHT22;10999;51.332;9.458;2023-03-23T16:06:51;14.10;51.80
21676;DHT22;10999;51.332;9.458;2023-03-23T16:09:20;14.10;51.80
21676;DHT22;10999;51.332;9.458;2023-03-23T16:11:47;14.10;52.50
21676;DHT22;10999;51.332;9.458;2023-03-23T16:14:13;14.10;52.30
21676;DHT22;10999;51.332;9.458;2023-03-23T16:16:48;14.10;51.80
21676;DHT22;10999;51.332;9.458;2023-03-23T16:19:17;14.20;51.70
21676;DHT22;10999;51.332;9.458;2023-03-23T16:21:45;14.20;51.40
21676;DHT22;10999;51.332;9.458;2023-03-23T16:24:12;14.20;52.30
21676;DHT22;10999;51.332;9.458;2023-03-23T16:26:39;14.10;51.70
21676;DHT22;10999;51.332;9.458;2023-03-23T16:29:13;14.10;52.10
21676;DHT22;10999;51.332;9.458;2023-03-23T16:31:59;14.10;51.70
21676;DHT22;10999;51.332;9.458;2023-03-23T16:34:26;14.00;52.10
21676;DHT22;10999;51.332;9.458;2023-03-23T16:36:55;14.00;52.50
21676;DHT22;10999;51.332;9.458;2023-03-23T16:39:22;14.00;51.90
21676;DHT22;10999;51.332;9.458;2023-03-23T16:41:48;13.90;52.50
21676;DHT22;10999;51.332;9.458;2023-03-23T16:44:15;13.90;52.70
21676;DHT22;10999;51.332;9.458;2023-03-23T16:46:42;13.90;54.00
21676;DHT22;10999;51.332;9.458;2023-03-23T16:49:09;13.80;54.90
21676;DHT22;10999;51.332;9.458;2023-03-23T16:51:36;13.80;55.60
21676;DHT22;10999;51.332;9.458;2023-03-23T16:54:03;13.80;56.40
21676;DHT22;10999;51.332;9.458;2023-03-23T16:56:29;13.70;56.70
21676;DHT22;10999;51.332;9.458;2023-03-23T16:58:56;13.70;57.10
21676;DHT22;10999;51.332;9.458;2023-03-23T17:01:23;13.70;57.80
21676;DHT22;10999;51.332;9.458;2023-03-23T17:03:50;13.60;58.60
21676;DHT22;10999;51.332;9.458;2023-03-23T17:06:16;13.60;59.80
21676;DHT22;10999;51.332;9.458;2023-03-23T17:08:43;13.50;61.20
21676;DHT22;10999;51.332;9.458;2023-03-23T17:11:10;13.50;62.60
21676;DHT22;10999;51.332;9.458;2023-03-23T17:13:37;13.40;64.10
21676;DHT22;10999;51.332;9.458;2023-03-23T17:16:04;13.30;65.20
21676;DHT22;10999;51.332;9.458;2023-03-23T17:18:31;13.30;67.10
21676;DHT22;10999;51.332;9.458;2023-03-23T17:20:58;13.20;68.10
21676;DHT22;10999;51.332;9.458;2023-03-23T17:23:24;13.20;68.80
21676;DHT22;10999;51.332;9.458;2023-03-23T17:25:51;13.10;70.10
21676;DHT22;10999;51.332;9.458;2023-03-23T17:28:19;13.00;70.60
21676;DHT22;10999;51.332;9.458;2023-03-23T17:30:46;13.00;71.30
21676;DHT22;10999;51.332;9.458;2023-03-23T17:33:14;13.00;72.70
21676;DHT22;10999;51.332;9.458;2023-03-23T17:35:41;12.90;72.40
21676;DHT22;10999;51.332;9.458;2023-03-23T17:38:08;12.90;72.70
21676;DHT22;10999;51.332;9.458;2023-03-23T17:40:35;12.90;72.60